Time;durP1;ratioP1;P1;durP2;ratioP2;P2;SDS_P1;SDS_P2;PMS_P1;PMS_P2;Temp;Humidity;BMP_temperature;BMP_pressure;BME280_temperature;BME280_humidity;BME280_pressure;Samples;Min_cycle;Max_cycle;Signal;HPM_P1;HPM_P2
2022/07/13 00:02:19;;;;;;;9.50;5.35;;;19.90;99.90;;;;;;5049545;28;20380;-68
2022/07/13 00:04:44;;;;;;;17.10;5.53;;;19.90;99.90;;;;;;5049789;28;20025;-68
2022/07/13 00:07:10;;;;;;;9.80;4.82;;;19.90;99.90;;;;;;5049933;28;20037;-68
2022/07/13 00:09:35;;;;;;;12.13;5.28;;;19.90;99.90;;;;;;5049851;28;20036;-68
2022/07/13 00:12:01;;;;;;;10.70;5.22;;;19.90;99.90;;;;;;5049627;28;20025;-68
2022/07/13 00:14:26;;;;;;;9.05;4.45;;;19.90;99.90;;;;;;5049241;28;20487;-68
2022/07/13 00:16:52;;;;;;;10.07;4.50;;;20.00;99.90;;;;;;5049843;28;20108;-68
2022/07/13 00:19:17;;;;;;;9.10;4.85;;;20.00;99.90;;;;;;5049955;28;20533;-68
2022/07/13 00:21:43;;;;;;;8.02;4.88;;;19.90;99.90;;;;;;5049598;28;20017;-68
2022/07/13 00:24:08;;;;;;;8.90;4.68;;;19.90;99.90;;;;;;5049778;28;20025;-68
2022/07/13 00:26:34;;;;;;;11.13;4.78;;;19.90;99.90;;;;;;5049347;28;20499;-68
2022/07/13 00:28:59;;;;;;;5.55;3.45;;;19.80;99.90;;;;;;5049872;28;20025;-68
2022/07/13 00:31:25;;;;;;;6.07;4.13;;;19.80;99.90;;;;;;5031144;28;20521;-68
2022/07/13 00:33:50;;;;;;;9.00;4.80;;;19.80;99.90;;;;;;5031090;28;20033;-68
2022/07/13 00:36:16;;;;;;;6.13;4.30;;;19.70;99.90;;;;;;5049172;28;20033;-68
2022/07/13 00:38:41;;;;;;;10.15;4.88;;;19.70;99.90;;;;;;5049262;28;20029;-68
2022/07/13 00:41:07;;;;;;;7.93;4.68;;;19.60;99.90;;;;;;5049680;28;20036;-68
2022/07/13 00:43:33;;;;;;;10.43;4.30;;;19.60;99.90;;;;;;5049307;28;20052;-68
2022/07/13 00:45:59;;;;;;;9.70;4.53;;;19.60;99.90;;;;;;5049326;28;20025;-68
2022/07/13 00:48:25;;;;;;;5.75;4.00;;;19.60;99.90;;;;;;5048140;28;20063;-68
2022/07/13 00:50:51;;;;;;;9.15;4.35;;;19.70;99.90;;;;;;5048953;28;20056;-68
2022/07/13 00:53:18;;;;;;;13.23;4.70;;;19.70;99.90;;;;;;5049229;28;20029;-68
2022/07/13 00:55:46;;;;;;;8.30;4.95;;;19.70;99.90;;;;;;5049042;28;20048;-68
2022/07/13 00:58:12;;;;;;;6.57;3.97;;;19.70;99.90;;;;;;5049386;28;20133;-68
2022/07/13 01:00:37;;;;;;;6.60;4.18;;;19.80;99.90;;;;;;5052489;28;20541;-68
2022/07/13 01:03:03;;;;;;;8.00;3.28;;;19.80;99.90;;;;;;5052719;28;20028;-68
2022/07/13 01:05:29;;;;;;;7.75;3.80;;;19.80;99.90;;;;;;5051352;28;20024;-68
2022/07/13 01:07:56;;;;;;;5.40;3.80;;;19.80;99.90;;;;;;5050673;28;20037;-68
2022/07/13 01:10:22;;;;;;;9.18;4.60;;;19.80;99.90;;;;;;5027290;28;20175;-68
2022/07/13 01:12:47;;;;;;;8.02;4.50;;;19.70;99.90;;;;;;5034676;28;20144;-68
2022/07/13 01:15:13;;;;;;;9.18;4.85;;;19.60;99.90;;;;;;5052655;28;20383;-68
2022/07/13 01:17:39;;;;;;;7.95;4.50;;;19.50;99.90;;;;;;5052867;28;20167;-69
2022/07/13 01:20:07;;;;;;;10.23;4.40;;;19.40;99.90;;;;;;5052710;28;20394;-68
2022/07/13 01:22:45;;;;;;;11.82;5.30;;;19.30;99.90;;;;;;5052177;28;20391;-68
2022/07/13 01:25:11;;;;;;;12.52;5.68;;;19.20;99.90;;;;;;5052582;28;20017;-68
2022/07/13 01:27:39;;;;;;;13.95;5.85;;;19.10;99.90;;;;;;5052687;28;20060;-67
2022/07/13 01:30:05;;;;;;;8.10;5.63;;;19.10;99.90;;;;;;5040940;28;20037;-68
2022/07/13 01:32:47;;;;;;;16.38;5.68;;;19.10;99.90;;;;;;5032102;28;20393;-68
2022/07/13 01:35:14;;;;;;;12.35;5.40;;;19.00;99.90;;;;;;5045589;28;20033;-68
2022/07/13 01:37:41;;;;;;;9.50;5.03;;;18.90;99.90;;;;;;5052031;28;20021;-68
2022/07/13 01:40:07;;;;;;;13.68;5.55;;;18.90;99.90;;;;;;5052921;28;20024;-68
2022/07/13 01:42:39;;;;;;;8.60;5.22;;;18.90;99.90;;;;;;5052085;28;20017;-68
2022/07/13 01:45:07;;;;;;;8.30;5.15;;;18.90;99.90;;;;;;5051458;28;20395;-68
2022/07/13 01:47:37;;;;;;;11.43;5.72;;;18.90;99.90;;;;;;5052402;28;20033;-68
2022/07/13 01:50:03;;;;;;;7.72;5.18;;;18.80;99.90;;;;;;5034119;28;20116;-68
2022/07/13 01:52:29;;;;;;;7.82;5.20;;;18.90;99.90;;;;;;5050808;28;20116;-68
2022/07/13 01:54:54;;;;;;;7.80;5.35;;;18.90;99.90;;;;;;5051789;28;20454;-69
2022/07/13 01:57:20;;;;;;;17.65;6.18;;;18.90;99.90;;;;;;5051710;28;20501;-68
2022/07/13 01:59:45;;;;;;;14.02;5.82;;;18.90;99.90;;;;;;5051009;28;20035;-68
2022/07/13 02:02:11;;;;;;;5.70;4.80;;;18.90;99.90;;;;;;5032828;28;20032;-68
2022/07/13 02:04:36;;;;;;;7.32;5.25;;;18.90;99.90;;;;;;5051464;28;20438;-68
2022/07/13 02:07:02;;;;;;;6.60;5.32;;;19.00;99.90;;;;;;5051351;28;20531;-68
2022/07/13 02:09:28;;;;;;;8.02;5.40;;;19.00;99.90;;;;;;5050743;28;20391;-68
2022/07/13 02:11:53;;;;;;;10.98;5.30;;;19.00;99.90;;;;;;5050370;28;20036;-67
2022/07/13 02:14:19;;;;;;;7.65;5.43;;;19.00;99.90;;;;;;5051077;28;20518;-67
2022/07/13 02:16:45;;;;;;;10.70;5.28;;;19.00;99.90;;;;;;5051188;28;20113;-67
2022/07/13 02:19:10;;;;;;;11.20;5.75;;;18.90;99.90;;;;;;5050926;28;20100;-67
2022/07/13 02:21:36;;;;;;;8.27;5.32;;;18.90;99.90;;;;;;5051292;28;20104;-67
2022/07/13 02:24:01;;;;;;;8.85;5.57;;;18.90;99.90;;;;;;5051220;28;20029;-68
2022/07/13 02:26:27;;;;;;;14.23;5.63;;;18.90;99.90;;;;;;5050692;28;20090;-68
2022/07/13 02:28:52;;;;;;;8.82;5.38;;;18.90;99.90;;;;;;5050942;28;20021;-68
2022/07/13 02:31:19;;;;;;;8.05;5.03;;;19.00;99.90;;;;;;5030975;28;20029;-67
2022/07/13 02:33:44;;;;;;;8.52;5.53;;;19.00;99.90;;;;;;5030489;28;20484;-67
2022/07/13 02:36:10;;;;;;;9.55;5.45;;;19.10;99.90;;;;;;5031007;28;20034;-67
2022/07/13 02:38:35;;;;;;;10.63;5.05;;;19.10;99.90;;;;;;5031553;28;20025;-67
2022/07/13 02:41:01;;;;;;;13.18;4.45;;;19.10;99.90;;;;;;5050781;28;20039;-67
2022/07/13 02:43:26;;;;;;;9.65;5.18;;;19.00;99.90;;;;;;5050097;28;20025;-67
2022/07/13 02:45:52;;;;;;;8.98;4.95;;;19.00;99.90;;;;;;5033208;28;20053;-68
2022/07/13 02:48:18;;;;;;;7.07;5.38;;;19.00;99.90;;;;;;5050756;28;20127;-67
2022/07/13 02:50:44;;;;;;;12.93;5.10;;;19.00;99.90;;;;;;5049926;28;20029;-68
2022/07/13 02:53:09;;;;;;;9.60;4.75;;;19.10;99.90;;;;;;5050376;28;20424;-68
2022/07/13 02:55:35;;;;;;;10.55;5.35;;;19.00;99.90;;;;;;5050190;28;20036;-67
2022/07/13 02:58:01;;;;;;;9.05;4.85;;;19.00;99.90;;;;;;5050408;28;20040;-68
2022/07/13 03:00:27;;;;;;;8.95;4.65;;;19.10;99.90;;;;;;5050512;28;20502;-68
2022/07/13 03:02:52;;;;;;;7.20;4.97;;;19.10;99.90;;;;;;5050131;28;20118;-68
2022/07/13 03:05:18;;;;;;;8.10;4.72;;;19.10;99.90;;;;;;5050183;28;20057;-67
2022/07/13 03:07:43;;;;;;;8.10;4.68;;;19.10;99.90;;;;;;5050408;28;20491;-68
2022/07/13 03:10:09;;;;;;;18.52;5.07;;;19.10;99.90;;;;;;5050247;28;20487;-68
2022/07/13 03:12:35;;;;;;;9.88;5.05;;;19.10;99.90;;;;;;5049657;28;20033;-68
2022/07/13 03:15:00;;;;;;;9.73;4.75;;;19.10;99.90;;;;;;5032247;28;20103;-67
2022/07/13 03:17:26;;;;;;;8.75;4.28;;;19.10;99.90;;;;;;5050271;28;20495;-68
2022/07/13 03:19:51;;;;;;;12.32;4.90;;;19.10;99.90;;;;;;5050261;28;20017;-68
2022/07/13 03:22:17;;;;;;;9.23;4.85;;;19.10;99.90;;;;;;5049337;28;20025;-68
2022/07/13 03:24:42;;;;;;;11.73;5.05;;;19.10;99.90;;;;;;5049321;28;20021;-67
2022/07/13 03:27:08;;;;;;;9.13;4.80;;;19.10;99.90;;;;;;5042452;28;20039;-67
2022/07/13 03:29:33;;;;;;;8.27;4.90;;;19.10;99.90;;;;;;5030052;28;20646;-67
2022/07/13 03:31:59;;;;;;;8.57;4.25;;;19.10;99.90;;;;;;5029757;28;20407;-68
2022/07/13 03:34:24;;;;;;;7.32;4.05;;;19.20;99.90;;;;;;5037512;28;20407;-68
2022/07/13 03:36:50;;;;;;;10.30;4.63;;;19.20;99.90;;;;;;5049884;28;20142;-67
2022/07/13 03:39:16;;;;;;;10.52;4.10;;;19.20;99.90;;;;;;5049759;28;20021;-68
2022/07/13 03:41:42;;;;;;;8.95;4.40;;;19.20;99.90;;;;;;5049185;28;20033;-67
2022/07/13 03:44:07;;;;;;;7.40;4.50;;;19.20;99.90;;;;;;5048945;28;20017;-67
2022/07/13 03:46:33;;;;;;;7.10;4.47;;;19.10;99.90;;;;;;5049722;28;20564;-67
2022/07/13 03:48:58;;;;;;;8.70;4.63;;;19.10;99.90;;;;;;5032076;28;20025;-68
2022/07/13 03:51:24;;;;;;;10.45;4.85;;;19.10;99.90;;;;;;5048821;28;20028;-67
2022/07/13 03:53:49;;;;;;;8.73;4.60;;;19.10;99.90;;;;;;5049250;28;20024;-68
2022/07/13 03:56:15;;;;;;;11.15;4.72;;;19.10;99.90;;;;;;5049463;28;20032;-67
2022/07/13 03:58:40;;;;;;;7.50;4.30;;;19.20;99.90;;;;;;5049487;28;20024;-68
2022/07/13 04:01:06;;;;;;;6.72;3.88;;;19.20;99.90;;;;;;5049565;28;20490;-67
2022/07/13 04:03:32;;;;;;;5.10;3.65;;;19.30;99.90;;;;;;5048879;28;20654;-68
2022/07/13 04:05:57;;;;;;;9.73;4.40;;;19.30;99.90;;;;;;5049318;28;20136;-68
2022/07/13 04:08:23;;;;;;;6.15;4.15;;;19.40;99.90;;;;;;5049708;28;20041;-68
2022/07/13 04:10:48;;;;;;;7.13;4.47;;;19.40;99.90;;;;;;5049128;28;20028;-68
2022/07/13 04:13:14;;;;;;;5.90;3.85;;;19.40;99.90;;;;;;5048841;28;20021;-68
2022/07/13 04:15:39;;;;;;;9.82;3.42;;;19.50;99.90;;;;;;5048682;28;20041;-68
2022/07/13 04:18:05;;;;;;;7.47;4.00;;;19.50;99.90;;;;;;5048899;28;20090;-68
2022/07/13 04:20:30;;;;;;;7.05;4.05;;;19.50;99.90;;;;;;5048490;28;20033;-67
2022/07/13 04:22:56;;;;;;;11.32;3.97;;;19.40;99.90;;;;;;5049012;28;20025;-68
2022/07/13 04:25:21;;;;;;;5.03;3.63;;;19.40;99.90;;;;;;5048181;28;20068;-67
2022/07/13 04:27:47;;;;;;;6.38;4.05;;;19.40;99.90;;;;;;5048871;28;20036;-68
2022/07/13 04:30:12;;;;;;;8.82;3.85;;;19.40;99.90;;;;;;5048761;28;20037;-68
2022/07/13 04:32:38;;;;;;;4.72;2.78;;;19.40;99.90;;;;;;5087886;22;20132;-63
2022/07/13 04:35:04;;;;;;;5.55;3.47;;;19.40;99.90;;;;;;5091765;28;20482;-63
2022/07/13 04:37:30;;;;;;;5.10;3.67;;;19.40;99.90;;;;;;5093715;28;20032;-63
2022/07/13 04:39:55;;;;;;;6.45;3.90;;;19.40;99.90;;;;;;5093433;28;20089;-63
2022/07/13 04:42:21;;;;;;;8.45;3.92;;;19.40;99.90;;;;;;5093469;28;20078;-63
2022/07/13 04:44:46;;;;;;;6.25;3.53;;;19.40;99.90;;;;;;5093386;28;20016;-63
2022/07/13 04:47:12;;;;;;;5.20;3.65;;;19.50;99.90;;;;;;5093619;28;20449;-63
2022/07/13 04:49:37;;;;;;;7.25;3.70;;;19.40;99.90;;;;;;5093606;28;20656;-63
2022/07/13 04:52:03;;;;;;;6.63;3.58;;;19.40;99.90;;;;;;5093313;28;20028;-63
2022/07/13 04:54:30;;;;;;;8.93;4.03;;;19.40;99.90;;;;;;5093266;28;20107;-63
2022/07/13 04:56:56;;;;;;;9.93;4.32;;;19.50;99.90;;;;;;5093180;28;20138;-62
2022/07/13 04:59:21;;;;;;;9.93;3.42;;;19.40;99.90;;;;;;5093393;28;20594;-63
2022/07/13 05:01:47;;;;;;;6.53;3.58;;;19.40;99.90;;;;;;5093299;28;20027;-63
2022/07/13 05:04:12;;;;;;;5.10;3.42;;;19.40;99.90;;;;;;5092545;28;20028;-63
2022/07/13 05:06:38;;;;;;;4.15;3.13;;;19.40;99.90;;;;;;5092956;28;20620;-62
2022/07/13 05:09:04;;;;;;;6.22;3.63;;;19.50;99.90;;;;;;5093237;28;20034;-63
2022/07/13 05:11:29;;;;;;;5.35;3.80;;;19.50;99.90;;;;;;5092888;28;20024;-63
2022/07/13 05:13:55;;;;;;;10.00;4.28;;;19.50;99.90;;;;;;5092723;28;20426;-63
2022/07/13 05:16:20;;;;;;;6.78;4.13;;;19.60;99.90;;;;;;5092882;28;20032;-63
2022/07/13 05:18:46;;;;;;;7.55;3.50;;;19.60;99.90;;;;;;5093217;28;20021;-63
2022/07/13 05:21:11;;;;;;;9.43;4.28;;;19.70;99.90;;;;;;5092963;28;20470;-63
2022/07/13 05:23:38;;;;;;;7.05;4.10;;;19.70;99.90;;;;;;5092364;28;20032;-63
2022/07/13 05:26:04;;;;;;;5.88;3.42;;;19.70;99.90;;;;;;5092960;28;20024;-62
2022/07/13 05:28:30;;;;;;;6.30;4.13;;;19.80;99.90;;;;;;5078554;28;20047;-63
2022/07/13 05:30:56;;;;;;;4.75;3.30;;;19.80;99.90;;;;;;5072125;28;20536;-63
2022/07/13 05:33:22;;;;;;;4.63;3.55;;;19.80;99.90;;;;;;5072429;28;20143;-63
2022/07/13 05:35:47;;;;;;;11.05;4.32;;;19.90;99.90;;;;;;5090583;28;20142;-63
2022/07/13 05:38:13;;;;;;;7.32;3.38;;;19.90;99.90;;;;;;5092890;28;20134;-63
2022/07/13 05:40:39;;;;;;;8.23;3.72;;;19.90;99.90;;;;;;5074798;28;20024;-63
2022/07/13 05:43:05;;;;;;;5.45;3.58;;;19.90;99.90;;;;;;5092156;28;20031;-63
2022/07/13 05:45:30;;;;;;;6.15;3.63;;;19.90;99.90;;;;;;5091662;28;20032;-63
2022/07/13 05:47:56;;;;;;;6.15;3.80;;;19.80;99.90;;;;;;5092104;28;20110;-63
2022/07/13 05:50:21;;;;;;;11.20;4.00;;;19.90;99.90;;;;;;5092095;28;20509;-63
2022/07/13 05:52:47;;;;;;;7.88;3.40;;;19.90;99.90;;;;;;5092603;28;20508;-63
2022/07/13 05:55:13;;;;;;;7.22;3.42;;;20.00;99.90;;;;;;5091325;28;20032;-63
2022/07/13 05:57:39;;;;;;;5.22;3.58;;;20.10;99.90;;;;;;5092208;28;20075;-63
2022/07/13 06:00:08;;;;;;;5.20;3.75;;;20.10;99.90;;;;;;5092224;28;20077;-63
2022/07/13 06:02:34;;;;;;;7.22;4.10;;;20.10;99.90;;;;;;5091890;28;20394;-62
2022/07/13 06:04:59;;;;;;;7.38;3.90;;;20.10;99.90;;;;;;5091902;28;20027;-63
2022/07/13 06:07:25;;;;;;;8.48;4.20;;;20.10;99.90;;;;;;5092256;28;20036;-63
2022/07/13 06:09:50;;;;;;;7.72;3.70;;;20.10;99.90;;;;;;5092168;28;20070;-62
2022/07/13 06:12:16;;;;;;;7.38;3.70;;;20.20;99.90;;;;;;5091665;28;20032;-62
2022/07/13 06:14:41;;;;;;;7.22;3.13;;;20.30;99.90;;;;;;5091791;28;20020;-62
2022/07/13 06:17:07;;;;;;;5.43;3.45;;;20.30;99.90;;;;;;5091900;28;20043;-63
2022/07/13 06:19:33;;;;;;;3.92;2.38;;;20.40;99.90;;;;;;5092028;28;20016;-62
2022/07/13 06:21:59;;;;;;;6.93;3.63;;;20.50;99.90;;;;;;5091646;28;20440;-63
2022/07/13 06:24:25;;;;;;;5.47;2.80;;;20.60;99.90;;;;;;5091586;28;20020;-63
2022/07/13 06:26:50;;;;;;;10.50;3.05;;;20.70;99.90;;;;;;5091624;28;20032;-63
2022/07/13 06:29:16;;;;;;;6.13;2.63;;;20.80;99.90;;;;;;5091997;28;20119;-63
2022/07/13 06:31:42;;;;;;;9.25;3.28;;;20.90;99.90;;;;;;5090997;28;20149;-63
2022/07/13 06:34:07;;;;;;;12.55;3.28;;;21.00;99.90;;;;;;5091228;28;20032;-62
2022/07/13 06:36:34;;;;;;;5.53;2.38;;;21.10;99.90;;;;;;5091472;28;20032;-63
2022/07/13 06:39:00;;;;;;;3.97;2.35;;;21.30;99.90;;;;;;5091642;28;20028;-63
2022/07/13 06:41:26;;;;;;;4.82;2.55;;;21.40;99.90;;;;;;5091100;28;20390;-63
2022/07/13 06:43:51;;;;;;;8.57;2.65;;;21.60;99.90;;;;;;5091014;28;20516;-63
2022/07/13 06:46:17;;;;;;;6.10;2.75;;;21.80;99.90;;;;;;5090974;28;20013;-63
2022/07/13 06:48:42;;;;;;;8.85;1.75;;;21.90;99.90;;;;;;5091425;28;20440;-63
2022/07/13 06:51:08;;;;;;;4.30;1.70;;;22.00;99.90;;;;;;5090764;28;20032;-63
2022/07/13 06:53:33;;;;;;;6.18;2.05;;;22.10;99.90;;;;;;5090229;28;20024;-63
2022/07/13 06:55:59;;;;;;;8.68;1.95;;;22.20;99.90;;;;;;5091573;28;20050;-63
2022/07/13 06:58:24;;;;;;;4.05;1.73;;;22.30;99.90;;;;;;5090921;28;20099;-63
2022/07/13 07:00:50;;;;;;;6.72;1.92;;;22.50;99.90;;;;;;5091155;28;20039;-63
2022/07/13 07:03:15;;;;;;;6.28;1.92;;;22.60;99.90;;;;;;5090312;28;20394;-63
2022/07/13 07:05:41;;;;;;;5.10;2.00;;;22.70;99.90;;;;;;5090618;28;20461;-63
2022/07/13 07:08:07;;;;;;;8.27;2.28;;;22.80;99.90;;;;;;5091002;28;20101;-63
2022/07/13 07:10:33;;;;;;;3.03;1.90;;;22.90;99.90;;;;;;5090892;28;20157;-63
2022/07/13 07:12:58;;;;;;;2.38;1.90;;;23.10;99.90;;;;;;5090169;28;20467;-63
2022/07/13 07:15:24;;;;;;;2.83;1.90;;;23.20;99.90;;;;;;5091062;28;20421;-63
2022/07/13 07:17:49;;;;;;;5.70;2.30;;;23.30;99.90;;;;;;5090776;28;20161;-63
2022/07/13 07:20:16;;;;;;;14.93;2.10;;;23.40;99.90;;;;;;5090250;28;20020;-63
2022/07/13 07:22:43;;;;;;;4.80;2.03;;;23.50;99.90;;;;;;5090788;28;20363;-63
2022/07/13 07:25:09;;;;;;;3.85;1.80;;;23.60;99.90;;;;;;5090531;28;20027;-62
2022/07/13 07:27:35;;;;;;;8.40;1.92;;;23.60;99.90;;;;;;5086806;28;20028;-62
2022/07/13 07:30:00;;;;;;;6.05;2.45;;;23.70;99.90;;;;;;5070438;28;20024;-63
2022/07/13 07:32:26;;;;;;;4.28;2.38;;;23.70;99.90;;;;;;5070244;28;20497;-62
2022/07/13 07:34:52;;;;;;;3.25;2.08;;;23.80;99.90;;;;;;5088906;28;20032;-63
2022/07/13 07:37:22;;;;;;;9.63;2.13;;;23.90;99.90;;;;;;5090453;28;20094;-63
2022/07/13 07:39:48;;;;;;;5.03;1.70;;;24.00;99.90;;;;;;5090072;28;20020;-63
2022/07/13 07:42:14;;;;;;;3.15;1.73;;;24.00;99.90;;;;;;5090147;28;20081;-63
2022/07/13 07:44:39;;;;;;;5.57;2.60;;;24.00;99.90;;;;;;5091435;28;20105;-63
2022/07/13 07:47:05;;;;;;;3.35;1.88;;;24.00;99.90;;;;;;5091721;28;20185;-63
2022/07/13 07:49:30;;;;;;;9.35;2.17;;;24.00;99.90;;;;;;5091301;28;20028;-63
2022/07/13 07:51:56;;;;;;;7.80;1.77;;;24.00;99.90;;;;;;5090883;28;20024;-63
2022/07/13 07:54:21;;;;;;;2.42;1.85;;;24.00;99.90;;;;;;5090404;28;20036;-62
2022/07/13 07:56:48;;;;;;;2.53;1.80;;;24.00;99.90;;;;;;5088921;28;20109;-63
2022/07/13 07:59:14;;;;;;;7.80;1.83;;;24.00;99.90;;;;;;5089774;28;20024;-63
2022/07/13 08:01:40;;;;;;;3.28;2.40;;;23.90;99.90;;;;;;5089270;28;20024;-63
2022/07/13 08:04:06;;;;;;;4.93;2.40;;;23.90;99.90;;;;;;5089411;28;20028;-63
2022/07/13 08:06:31;;;;;;;5.43;2.42;;;23.80;99.90;;;;;;5089793;28;20036;-63
2022/07/13 08:08:57;;;;;;;3.53;1.92;;;23.80;99.90;;;;;;5089644;28;20024;-61
2022/07/13 08:11:23;;;;;;;1.70;1.48;;;23.80;99.90;;;;;;5093656;28;20027;-60
2022/07/13 08:13:49;;;;;;;10.07;2.35;;;23.70;99.90;;;;;;5093376;28;20020;-62
2022/07/13 08:16:16;;;;;;;4.22;2.00;;;23.70;99.90;;;;;;5093571;28;20497;-62
2022/07/13 08:18:42;;;;;;;7.40;2.65;;;23.60;99.90;;;;;;5093471;28;20032;-63
2022/07/13 08:21:08;;;;;;;2.88;2.47;;;23.30;99.90;;;;;;5094048;28;20099;-62
2022/07/13 08:23:52;;;;;;;5.47;2.95;;;23.40;99.90;;;;;;5092559;28;20116;-62
2022/07/13 08:26:19;;;;;;;6.73;3.00;;;23.00;99.90;;;;;;5093671;28;20024;-63
2022/07/13 08:28:44;;;;;;;8.82;2.95;;;22.90;99.90;;;;;;5093922;28;20262;-63
2022/07/13 08:31:14;;;;;;;4.30;2.70;;;22.90;99.90;;;;;;5093285;28;20261;-63
2022/07/13 08:39:10;;;;;;;4.43;2.20;;;23.20;99.90;;;;;;5092868;28;20047;-62
2022/07/13 08:41:36;;;;;;;3.22;2.30;;;23.50;99.90;;;;;;5092882;28;20065;-63
2022/07/13 08:44:02;;;;;;;5.85;2.83;;;23.90;99.90;;;;;;5092765;28;20036;-62
2022/07/13 08:46:28;;;;;;;8.15;3.10;;;24.20;99.90;;;;;;5092534;28;20089;-61
2022/07/13 08:48:55;;;;;;;8.70;2.60;;;24.50;99.90;;;;;;5093107;28;20028;-63
2022/07/13 08:51:22;;;;;;;4.95;2.20;;;24.60;99.90;;;;;;5092929;28;20024;-62
2022/07/13 08:53:51;;;;;;;6.15;2.40;;;24.70;99.90;;;;;;5092299;28;20494;-63
2022/07/13 08:56:17;;;;;;;3.55;2.10;;;24.80;99.90;;;;;;5092622;28;20024;-63
2022/07/13 08:58:42;;;;;;;5.47;2.60;;;25.00;99.90;;;;;;5093074;28;20027;-63
2022/07/13 09:01:09;;;;;;;11.20;3.15;;;25.20;99.90;;;;;;5092389;28;20046;-64
2022/07/13 09:03:35;;;;;;;6.03;2.25;;;25.40;99.90;;;;;;5091975;28;20498;-63
2022/07/13 09:06:01;;;;;;;10.40;2.40;;;25.50;99.90;;;;;;5092702;28;20016;-63
2022/07/13 09:08:27;;;;;;;5.75;2.75;;;25.70;99.90;;;;;;5092639;28;20695;-63
2022/07/13 09:10:59;;;;;;;4.30;2.65;;;25.80;99.90;;;;;;5092095;28;20089;-63
2022/07/13 09:13:45;;;;;;;4.35;2.17;;;26.00;99.90;;;;;;5092212;28;20326;-63
2022/07/13 09:16:27;;;;;;;6.05;2.97;;;26.30;99.90;;;;;;5072217;28;20038;-63
2022/07/13 09:18:57;;;;;;;9.63;2.70;;;26.40;99.90;;;;;;5072172;28;20090;-64
2022/07/13 09:21:23;;;;;;;4.65;2.15;;;26.50;99.90;;;;;;5070539;28;20037;-63
2022/07/13 09:23:57;;;;;;;5.68;1.98;;;26.50;99.90;;;;;;5074340;28;20021;-63
2022/07/13 09:26:37;;;;;;;4.68;2.40;;;26.60;99.90;;;;;;5079380;28;20028;-63
2022/07/13 09:29:04;;;;;;;13.20;2.70;;;26.60;99.90;;;;;;5071651;28;20029;-64
2022/07/13 09:31:29;;;;;;;7.55;2.42;;;26.80;99.90;;;;;;5071600;28;20017;-63
2022/07/13 09:33:55;;;;;;;6.68;2.38;;;26.90;99.90;;;;;;5074537;28;20028;-64
2022/07/13 09:36:22;;;;;;;3.92;2.13;;;27.00;99.90;;;;;;5092572;28;20444;-63
2022/07/13 09:38:51;;;;;;;3.58;2.03;;;27.20;99.90;;;;;;5092059;28;20020;-64
2022/07/13 09:41:26;;;;;;;8.20;2.10;;;27.40;99.90;;;;;;5091090;28;20752;-64
2022/07/13 09:46:59;;;;;;;2.05;1.50;;;27.70;99.90;;;;;;5092408;28;20023;-63
2022/07/13 09:49:41;;;;;;;2.42;1.42;;;27.90;99.90;;;;;;5091913;28;20406;-64
2022/07/13 09:52:09;;;;;;;8.27;1.67;;;28.00;99.90;;;;;;5091327;28;20094;-64
2022/07/13 09:54:40;;;;;;;8.05;1.67;;;28.10;99.90;;;;;;5092040;28;20489;-63
2022/07/13 09:57:11;;;;;;;3.22;1.67;;;28.20;99.90;;;;;;5091173;28;20020;-64
2022/07/13 09:59:38;;;;;;;2.80;1.38;;;28.20;99.90;;;;;;5091716;28;20044;-64
2022/07/13 10:02:05;;;;;;;4.13;1.98;;;28.50;99.90;;;;;;5090977;28;20031;-64
2022/07/13 10:04:32;;;;;;;10.68;2.30;;;28.50;99.90;;;;;;5091525;28;20426;-64
2022/07/13 10:06:59;;;;;;;13.50;1.95;;;28.50;99.90;;;;;;5091583;28;20363;-64
2022/07/13 10:09:31;;;;;;;5.32;1.52;;;28.50;99.90;;;;;;5091557;28;20481;-64
2022/07/13 10:12:00;;;;;;;5.32;1.92;;;28.40;99.90;;;;;;5091072;28;20030;-63
2022/07/13 10:14:29;;;;;;;3.38;1.60;;;28.40;99.90;;;;;;5091670;28;20130;-64
2022/07/13 10:17:06;;;;;;;2.35;1.38;;;28.30;99.90;;;;;;5091552;28;20032;-63
2022/07/13 10:19:33;;;;;;;8.93;1.90;;;28.20;99.90;;;;;;5090669;28;20031;-63
2022/07/13 10:22:09;;;;;;;6.05;1.75;;;28.10;99.90;;;;;;5090787;28;20092;-63
2022/07/13 10:24:36;;;;;;;5.20;1.85;;;28.20;99.90;;;;;;5091035;28;20802;-63
2022/07/13 10:27:21;;;;;;;4.72;2.17;;;28.20;99.90;;;;;;5091074;28;20099;-63
2022/07/13 10:29:51;;;;;;;11.75;2.05;;;28.30;99.90;;;;;;5091020;28;20496;-63
2022/07/13 10:32:20;;;;;;;3.90;1.52;;;28.30;99.90;;;;;;5090086;28;20587;-64
2022/07/13 10:34:59;;;;;;;4.32;1.55;;;28.30;99.90;;;;;;5098401;22;20458;-67
2022/07/13 10:37:26;;;;;;;2.28;1.63;;;28.30;99.90;;;;;;5071252;28;20115;-68
2022/07/13 10:40:15;;;;;;;5.15;1.73;;;28.20;99.90;;;;;;5070936;28;20032;-67
2022/07/13 10:42:57;;;;;;;5.65;1.95;;;28.20;99.90;;;;;;5070718;28;20025;-67
2022/07/13 10:45:35;;;;;;;5.97;1.40;;;28.10;99.90;;;;;;5050993;28;20382;-67
2022/07/13 10:48:04;;;;;;;2.42;1.65;;;28.10;99.90;;;;;;5050683;28;20496;-67
2022/07/13 10:50:36;;;;;;;2.55;1.70;;;28.20;99.90;;;;;;5050111;28;20021;-67
2022/07/13 10:53:02;;;;;;;3.05;1.70;;;28.20;99.90;;;;;;5050009;28;20064;-67
2022/07/13 10:55:32;;;;;;;4.18;1.60;;;28.30;99.90;;;;;;5050759;28;20147;-67
2022/07/13 10:57:58;;;;;;;3.33;1.20;;;28.30;99.90;;;;;;5049924;28;20020;-68
2022/07/13 11:00:43;;;;;;;2.70;1.75;;;28.50;99.90;;;;;;5050036;28;20035;-67
2022/07/13 11:03:31;;;;;;;6.10;1.98;;;28.70;99.90;;;;;;5050261;28;20255;-68
2022/07/13 11:06:03;;;;;;;2.55;1.52;;;28.90;99.90;;;;;;5029908;28;20112;-68
2022/07/13 11:08:29;;;;;;;2.50;1.40;;;28.70;99.90;;;;;;5029885;28;20018;-67
2022/07/13 11:11:18;;;;;;;5.75;2.13;;;28.70;99.90;;;;;;5030444;28;20112;-68
2022/07/13 11:13:45;;;;;;;1.90;1.48;;;28.80;99.90;;;;;;5032214;28;20040;-67
2022/07/13 11:16:34;;;;;;;2.33;1.50;;;28.90;99.90;;;;;;5049701;28;20078;-67
2022/07/13 11:18:59;;;;;;;1.95;1.73;;;29.00;99.90;;;;;;5050034;28;20037;-68
2022/07/13 11:21:25;;;;;;;1.50;1.40;;;29.10;99.90;;;;;;5049552;28;20127;-68
2022/07/13 11:26:53;;;;;;;3.13;1.52;;;29.30;99.90;;;;;;5049957;28;20513;-68
2022/07/13 11:29:45;;;;;;;3.17;1.95;;;29.20;99.90;;;;;;5049927;28;20033;-68
2022/07/13 11:32:11;;;;;;;5.95;1.40;;;29.20;99.90;;;;;;5049366;28;20021;-68
2022/07/13 11:34:37;;;;;;;2.53;1.50;;;29.10;99.90;;;;;;5048940;28;20506;-68
2022/07/13 11:37:04;;;;;;;5.93;1.88;;;29.20;99.90;;;;;;5050181;28;20467;-68
2022/07/13 11:39:34;;;;;;;5.70;1.50;;;29.20;99.90;;;;;;5049780;28;20029;-67
2022/07/13 11:42:02;;;;;;;2.03;1.58;;;29.20;99.90;;;;;;5048871;28;20100;-68
2022/07/13 11:44:29;;;;;;;5.88;1.58;;;29.20;99.90;;;;;;5048641;28;20035;-67
2022/07/13 11:46:57;;;;;;;2.80;1.60;;;29.30;99.90;;;;;;5050041;28;20025;-68
2022/07/13 11:49:23;;;;;;;7.00;1.50;;;29.30;99.90;;;;;;5049710;28;20041;-68
2022/07/13 11:51:50;;;;;;;2.88;1.52;;;29.40;99.90;;;;;;5049534;28;20032;-68
2022/07/13 11:54:17;;;;;;;4.88;1.48;;;29.60;99.90;;;;;;5049179;28;20029;-67
2022/07/13 11:56:50;;;;;;;2.33;1.08;;;29.60;99.90;;;;;;5049375;28;20090;-68
2022/07/13 11:59:35;;;;;;;3.75;1.15;;;29.70;99.90;;;;;;5049496;28;20021;-67
2022/07/13 12:02:02;;;;;;;3.03;1.27;;;29.80;99.90;;;;;;5048761;28;20029;-68
2022/07/13 12:04:28;;;;;;;3.13;1.40;;;30.20;99.90;;;;;;5048519;28;20013;-68
2022/07/13 12:07:17;;;;;;;9.18;1.40;;;30.30;99.90;;;;;;5049024;28;20025;-68
2022/07/13 12:10:00;;;;;;;1.42;1.23;;;30.20;99.90;;;;;;5049064;28;20024;-68
2022/07/13 12:12:36;;;;;;;4.05;1.10;;;30.00;99.90;;;;;;5049081;28;20090;-68
2022/07/13 12:15:04;;;;;;;2.97;1.10;;;30.10;99.90;;;;;;5049016;28;20033;-68
2022/07/13 12:17:44;;;;;;;4.10;1.30;;;30.20;99.90;;;;;;5049287;28;20025;-67
2022/07/13 12:20:15;;;;;;;1.52;1.10;;;30.40;99.90;;;;;;5049396;28;20554;-67
2022/07/13 12:22:52;;;;;;;3.53;1.30;;;30.40;99.90;;;;;;5049022;28;20439;-68
2022/07/13 12:25:35;;;;;;;4.65;0.93;;;30.60;99.90;;;;;;5048776;28;20514;-68
2022/07/13 12:28:04;;;;;;;1.60;1.15;;;30.80;99.90;;;;;;5049157;28;20391;-67
2022/07/13 12:30:32;;;;;;;3.58;1.17;;;30.80;99.90;;;;;;5049046;28;20033;-67
2022/07/13 12:33:16;;;;;;;1.20;0.80;;;30.60;99.90;;;;;;5048790;28;20036;-67
2022/07/13 12:35:42;;;;;;;1.50;1.20;;;30.50;99.90;;;;;;5048878;28;20029;-67
2022/07/13 12:38:11;;;;;;;5.03;1.30;;;30.70;99.90;;;;;;5048830;28;20132;-67
2022/07/13 12:40:46;;;;;;;10.48;1.63;;;30.80;99.90;;;;;;5048971;28;20025;-67
2022/07/13 12:43:24;;;;;;;4.63;1.10;;;30.80;99.90;;;;;;5048835;28;20021;-67
2022/07/13 12:45:54;;;;;;;4.10;1.13;;;30.90;99.90;;;;;;5048842;28;20495;-68
2022/07/13 12:48:25;;;;;;;4.25;1.10;;;31.10;99.90;;;;;;5048842;28;20033;-67
2022/07/13 12:51:13;;;;;;;2.13;1.20;;;31.00;99.60;;;;;;5047990;28;20479;-67
2022/07/13 12:53:54;;;;;;;2.67;1.25;;;30.90;99.40;;;;;;5041967;28;20108;-67
2022/07/13 12:56:21;;;;;;;1.45;1.35;;;31.00;98.50;;;;;;5031040;28;20404;-67
2022/07/13 12:58:53;;;;;;;3.28;1.17;;;31.10;97.70;;;;;;5032629;28;20036;-68
2022/07/13 13:01:30;;;;;;;9.30;1.38;;;31.20;97.80;;;;;;5032686;28;20100;-68